Аэропорт: Уфа. Уфа

ICAO: UWUU

METAR:
2024-04-22 21:30:00
UWUU 222130Z 12003MPS CAVOK 13/08 Q1020 R14R/0///60 NOSIG
TAF:
2024-04-22 19:59:00
TAF UWUU 221959Z 2221/2321 13004G10MPS 9999 BKN030 TX27/2309Z TN13/2301Z 
  TEMPO 2221/2306 16003G08MPS 6000 BKN020CB 
  TEMPO 2306/2312 17006G13MPS BKN020CB 
  TEMPO 2312/2321 VRB17MPS 3500 -TSRAGR SQ BKN016CB